Portada
METAR-TAF:

METAR-TAF

Aeroports :

La Chaux-de-Fonds, Suïssa

latitud: 47-05-03N, longitud: 006-47-37E, altitud: 1027 m

Observació

L'informe es va fer fa 34 minuts, a les 15:50 UTC
Vent 5 kt amb direcció variable
Temperatura 23°C
Humitat 27%
Pressió 1016 hPa
Visibilitat 10 km o més
sense núvols per sota de 1500 mi sense presència de cumulonimbus.

METAR: LSGC 171550Z VRB05KT CAVOK 23/03 Q1016

Hora: 18:24 (16:24 UTC)

Pronòstic

L'informe es va fer fa 1 hora i 59 minuts, a les 14:25 UTC
Pronòstic vàlid del 17 a les 15 UTC al 17 a les 24 UTC
Vent 5 kt del Oest/Sud-Oest
Visibilitat 10 km o més
sense núvols per sota de 1500 mi sense presència de cumulonimbus.

TAF: LSGC 171425Z 1715/1724 25005KT CAVOK

Observacions i pronòstics meteorològics de més de 4000 aeroports (METAR i TAF).

Les estacions disponibles són els punts grocs i vermells al mapa.

Posi el ratolí al punt desitjat per veure el nom de l'estació.

Feu clic per veure les observacions i els pronòstics meteorològics.

Per canviar el mapa: feu clic els botons verds amb una creu de color negre per apropar; al botó verd amb un guió per allunyar la imatge; o en les fletxes verdes per a mapes adjacents.


METAR-TAF: